LSZ weather

Lošinj Island Airport
Lošinj, Primorje-Gorski Kotar County, Croatia

Public forecast

Using degrees Celsius for public forecast. Weather courtesy of forecast.io.

METAR (pilot weather report)

Retrieved 2019/05/26 17:00 UTC (41 minutes ago):

LDLO 261700Z 13008KT 9999 FEW050 18/15 Q1013

TAF (pilot weather forecast)

Retrieved 2019/05/26 12:27 UTC (5 hours ago):

TAF LDLO 261125Z 2612/2712 15007KT CAVOK TX22/2613Z TN15/2704Z TEMPO 2613/2709 15013KT PROB40 TEMPO 2617/2712 4000 RA BKN010 OVC025